Aérodrome :
LOGIN :

S'inscrire | Disclaimer

   EN    FR    IT 

 










Légende :    VFR   VFR Marginal   IFR   IFR Intensif   IFR Très Intensif
Visi : 
Plafond : 
>= 8 km
>= 3000ft
5 à 8 km
1000 à 3000 ft
1500m à 5 km
500 à 1000 ft
800 à 1500m
200 à 500 ft
< 800m
< 200 ft
Symboles :   Orages  Brouillard  Fortes neiges  Fortes précipitations  Vent > 20 kt
SIGMETs :   Divers  Orages  Givrage  Turbulence  Onde Orograph.  Cendres Volcan.






- Altitude de l'aérodrome : 1521 ft
- Code IATA : NCY


LFLP - Annecy

DERNIER METAR :
  • 100430Z AUTO 30005KT 9999 FEW037 BKN045 03/01 Q1025 TEMPO BKN014

METARs EXPIRÉS :
  • 100400Z AUTO VRB02KT 9999 FEW027 BKN034 BKN040 03/01 Q1025 TEMPO BKN014
  • 100330Z AUTO 21003KT 180V270 9999 FEW052 02/00 Q1024 TEMPO BKN014
  • 100300Z AUTO 33004KT 270V020 9999 FEW034 BKN056 BKN068 03/01 Q1024 NOSIG
  • 100230Z AUTO 28007KT 9999 BKN030 03/01 Q1024 NOSIG
  • 100200Z AUTO 28004KT 230V310 9999 -RA BKN036 BKN047 BKN062 04/02 Q1023

TAF TAF LFLP
Valide du 10 à 03h jusqu'au 11 à 03h UTC


100200Z 1003/1103 VRB02KT 9999 BKN025
TEMPO 1005/1012 34005KT BKN014
BECMG 1018/1020 CAVOK



MET'MAP, la Météo Aéronautique d'un coup d'oeil ! - Copyright ORBIFLY Décembre 2007 - Disclaimer

ORBIFLY MET'MAP TEAM :

Programmation & Développement : Alexandra Zaïnal
Sur une idée originale de : Baudouin d'Aumeries
Assistance à la programmation : Marc-Olivier Méhu
Soutien technique & logistique : Manuel Goepfert

Contact : metmap@orbifly.com




SOURCES & CREDITS :

   NOAA